Time;durP1;ratioP1;P1;durP2;ratioP2;P2;SDS_P1;SDS_P2;PMS_P1;PMS_P2;Temp;Humidity;BMP_temperature;BMP_pressure;BME280_temperature;BME280_humidity;BME280_pressure;Samples;Min_cycle;Max_cycle;Signal;HPM_P1;HPM_P2
2022/11/24 00:00:34;;;;;;;13.98;5.57;;;7.10;99.90;;;;;;6128397;19;20333;-68
2022/11/24 00:02:38;;;;;;;12.18;5.30;;;6.90;99.90;;;;;;6128768;19;19921;-69
2022/11/24 00:04:42;;;;;;;10.90;5.20;;;6.80;99.90;;;;;;6127140;19;19922;-68
2022/11/24 00:06:48;;;;;;;10.65;5.38;;;6.80;99.90;;;;;;6125871;19;19914;-68
2022/11/24 00:08:53;;;;;;;9.10;4.78;;;6.50;99.90;;;;;;6127895;19;19915;-69
2022/11/24 00:10:57;;;;;;;12.98;5.53;;;7.00;99.90;;;;;;6125992;19;19919;-69
2022/11/24 00:13:00;;;;;;;9.60;4.85;;;6.60;99.90;;;;;;6128292;19;20297;-68
2022/11/24 00:15:04;;;;;;;10.95;5.55;;;6.70;99.90;;;;;;6128570;19;19958;-68
2022/11/24 00:17:08;;;;;;;11.13;5.57;;;6.40;99.90;;;;;;6127959;19;20380;-69
2022/11/24 00:19:13;;;;;;;10.85;5.40;;;6.90;99.90;;;;;;6127435;19;19922;-69
2022/11/24 00:21:17;;;;;;;14.32;5.80;;;6.70;99.90;;;;;;6129439;19;20357;-69
2022/11/24 00:23:24;;;;;;;11.70;4.63;;;7.10;99.90;;;;;;6128354;19;19919;-69
2022/11/24 00:25:27;;;;;;;12.93;5.10;;;6.70;99.90;;;;;;6128968;19;19923;-70
2022/11/24 00:27:31;;;;;;;9.95;4.90;;;6.70;99.90;;;;;;6128458;19;19934;-70
2022/11/24 00:29:35;;;;;;;10.90;5.32;;;;;;;;;;6129512;19;19929;-69
2022/11/24 00:31:41;;;;;;;9.02;5.20;;;6.70;99.90;;;;;;6127881;19;19915;-69
2022/11/24 00:33:45;;;;;;;11.98;5.60;;;6.40;99.90;;;;;;6127880;19;20274;-69
2022/11/24 00:35:56;;;;;;;12.32;5.07;;;6.40;99.90;;;;;;6129619;19;19946;-69
2022/11/24 00:38:00;;;;;;;10.00;4.38;;;6.70;99.90;;;;;;6127709;19;19925;-69
2022/11/24 00:40:08;;;;;;;12.63;4.97;;;6.70;99.90;;;;;;6129210;19;19922;-70
2022/11/24 00:42:13;;;;;;;18.20;6.22;;;6.30;99.90;;;;;;6130394;19;20290;-69
2022/11/24 00:44:16;;;;;;;13.70;5.03;;;6.30;99.90;;;;;;6130434;19;20337;-68
2022/11/24 00:46:21;;;;;;;12.90;4.75;;;6.60;99.90;;;;;;6127559;19;19932;-69
2022/11/24 00:48:25;;;;;;;12.25;4.82;;;6.90;99.90;;;;;;6127543;19;19939;-69
2022/11/24 00:50:29;;;;;;;11.30;5.30;;;6.70;99.90;;;;;;6129343;19;19923;-68
2022/11/24 00:52:33;;;;;;;12.52;5.22;;;6.70;99.90;;;;;;6127461;19;20434;-69
2022/11/24 00:54:37;;;;;;;14.32;5.25;;;6.50;99.90;;;;;;6128514;19;20291;-68
2022/11/24 00:56:44;;;;;;;6.25;3.10;;;6.30;99.90;;;;;;6127141;19;19970;-69
2022/11/24 00:58:47;;;;;;;11.40;4.15;;;6.50;99.90;;;;;;6127293;19;20344;-68
2022/11/24 01:00:51;;;;;;;9.52;3.97;;;6.20;99.90;;;;;;6128243;19;20357;-69
2022/11/24 01:02:55;;;;;;;11.63;4.65;;;6.40;99.90;;;;;;6127276;19;19929;-69
2022/11/24 01:04:59;;;;;;;8.45;3.38;;;6.20;99.90;;;;;;6127487;19;19915;-68
2022/11/24 01:07:03;;;;;;;13.85;4.55;;;6.40;99.90;;;;;;6126450;19;19951;-67
2022/11/24 01:09:07;;;;;;;11.77;3.85;;;;;;;;;;6126005;19;19935;-67
2022/11/24 01:11:14;;;;;;;12.52;3.83;;;6.10;99.90;;;;;;6124663;19;19943;-68
2022/11/24 01:13:20;;;;;;;12.75;3.65;;;6.20;99.90;;;;;;6126395;19;19911;-68
2022/11/24 01:15:24;;;;;;;14.05;4.65;;;;;;;;;;6127265;19;19950;-68
2022/11/24 01:17:28;;;;;;;11.15;3.70;;;6.40;99.90;;;;;;6127608;19;19922;-68
2022/11/24 01:19:32;;;;;;;12.20;4.20;;;6.40;99.90;;;;;;6127846;19;19918;-68
2022/11/24 01:21:36;;;;;;;11.00;3.65;;;;;;;;;;6126692;19;19922;-68
2022/11/24 01:23:40;;;;;;;8.60;3.47;;;6.30;99.90;;;;;;6126894;19;19923;-69
2022/11/24 01:25:44;;;;;;;13.63;4.00;;;6.20;99.90;;;;;;6127429;19;20267;-68
2022/11/24 01:27:48;;;;;;;10.15;3.33;;;6.10;99.90;;;;;;6126955;19;19954;-69
2022/11/24 01:29:54;;;;;;;14.38;4.90;;;6.10;99.90;;;;;;6127447;19;19918;-68
2022/11/24 01:31:58;;;;;;;10.60;3.55;;;6.00;99.90;;;;;;6127286;19;19919;-68
2022/11/24 01:34:02;;;;;;;13.13;3.72;;;6.60;99.90;;;;;;6128539;19;19926;-68
2022/11/24 01:36:08;;;;;;;13.02;3.83;;;6.00;99.90;;;;;;6127624;19;19919;-68
2022/11/24 01:38:11;;;;;;;15.27;3.60;;;6.30;99.90;;;;;;6128198;19;19942;-68
2022/11/24 01:40:15;;;;;;;11.23;3.72;;;6.70;99.90;;;;;;6129038;19;20273;-69
2022/11/24 01:42:19;;;;;;;10.70;3.55;;;6.40;99.90;;;;;;6126095;19;19914;-69
2022/11/24 01:44:28;;;;;;;13.98;3.55;;;6.70;99.90;;;;;;6125581;19;20258;-68
2022/11/24 01:46:43;;;;;;;9.60;3.15;;;6.60;99.90;;;;;;6128305;19;19967;-69
2022/11/24 01:48:49;;;;;;;;;;;6.40;99.90;;;;;;6129768;19;19914;-68
2022/11/24 01:50:57;;;;;;;12.07;3.30;;;6.30;99.90;;;;;;6126050;19;19926;-68
2022/11/24 01:53:01;;;;;;;11.63;2.88;;;6.20;99.90;;;;;;6127737;19;19911;-68
2022/11/24 01:55:10;;;;;;;12.32;3.33;;;6.60;99.90;;;;;;6126963;19;19923;-68
2022/11/24 01:57:19;;;;;;;11.13;3.10;;;6.50;99.90;;;;;;6125654;19;19910;-68
2022/11/24 01:59:23;;;;;;;8.23;2.67;;;6.20;99.90;;;;;;6123908;19;20672;-68
2022/11/24 02:01:29;;;;;;;11.40;3.13;;;6.60;99.90;;;;;;6127750;19;19933;-69
2022/11/24 02:03:40;;;;;;;5.63;2.55;;;6.30;99.90;;;;;;6126753;19;20349;-68
2022/11/24 02:05:47;;;;;;;11.18;2.80;;;6.30;99.90;;;;;;6124658;19;20027;-69
2022/11/24 02:07:53;;;;;;;10.88;3.72;;;6.50;99.90;;;;;;6126081;19;19922;-68
2022/11/24 02:10:00;;;;;;;14.88;3.35;;;6.30;99.90;;;;;;6125898;19;19923;-69
2022/11/24 02:12:05;;;;;;;15.05;3.42;;;6.20;99.90;;;;;;6125534;19;19930;-68
2022/11/24 02:14:13;;;;;;;13.40;3.28;;;6.20;99.90;;;;;;6125096;19;19940;-68
2022/11/24 02:16:17;;;;;;;17.55;3.45;;;6.00;99.90;;;;;;6127469;19;19942;-68
2022/11/24 02:18:20;;;;;;;16.10;3.28;;;6.20;99.90;;;;;;6125771;19;19935;-68
2022/11/24 02:20:28;;;;;;;12.63;2.83;;;5.90;99.90;;;;;;6127534;19;19939;-68
2022/11/24 02:22:36;;;;;;;10.90;3.35;;;6.10;99.90;;;;;;6127880;19;19918;-68
2022/11/24 02:24:48;;;;;;;10.32;2.78;;;6.20;99.90;;;;;;6125459;19;19947;-68
2022/11/24 02:26:55;;;;;;;14.00;2.97;;;6.10;99.90;;;;;;6123204;19;19923;-67
2022/11/24 02:28:59;;;;;;;10.55;2.95;;;6.20;99.90;;;;;;6125885;19;20266;-69
2022/11/24 02:31:04;;;;;;;13.70;3.20;;;6.00;99.90;;;;;;6128150;19;19915;-68
2022/11/24 02:33:08;;;;;;;12.15;3.10;;;6.30;99.90;;;;;;6133723;19;19982;-68
2022/11/24 02:35:13;;;;;;;9.68;2.72;;;6.10;99.90;;;;;;6130848;19;19929;-69
2022/11/24 02:37:17;;;;;;;15.52;2.67;;;6.00;99.90;;;;;;6133067;19;19926;-70
2022/11/24 02:39:21;;;;;;;13.65;2.60;;;6.30;99.90;;;;;;6130433;19;19936;-69
2022/11/24 02:41:27;;;;;;;14.02;4.05;;;6.50;99.90;;;;;;6131836;19;19915;-69
2022/11/24 02:43:36;;;;;;;14.77;3.00;;;6.30;99.90;;;;;;6133903;19;19923;-69
2022/11/24 02:45:40;;;;;;;12.75;2.80;;;6.00;99.90;;;;;;6133425;19;19922;-68
2022/11/24 02:47:45;;;;;;;14.85;2.40;;;6.30;99.90;;;;;;6130251;19;19919;-68
2022/11/24 02:49:49;;;;;;;9.32;2.25;;;6.00;99.90;;;;;;6130521;19;19926;-68
2022/11/24 02:51:53;;;;;;;13.25;3.10;;;;;;;;;;6128939;19;19919;-68
2022/11/24 02:53:57;;;;;;;14.85;2.72;;;6.00;99.90;;;;;;6131119;19;19919;-69
2022/11/24 02:56:01;;;;;;;6.53;1.90;;;;;;;;;;6130192;19;19939;-69
2022/11/24 02:58:05;;;;;;;11.10;2.13;;;6.10;99.90;;;;;;6129272;19;19918;-69
2022/11/24 03:00:13;;;;;;;14.35;2.67;;;6.20;99.90;;;;;;6131956;19;20329;-70
2022/11/24 03:02:17;;;;;;;12.82;2.60;;;5.80;99.90;;;;;;6130830;19;19918;-69
2022/11/24 03:04:21;;;;;;;15.48;2.60;;;6.00;99.90;;;;;;6128842;19;19918;-69
2022/11/24 03:06:25;;;;;;;9.75;2.20;;;5.90;99.90;;;;;;6129564;19;19919;-69
2022/11/24 03:08:29;;;;;;;14.55;3.00;;;6.00;99.90;;;;;;6130912;19;19918;-69
2022/11/24 03:10:32;;;;;;;12.98;2.97;;;6.30;99.90;;;;;;6129591;19;19915;-69
2022/11/24 03:12:36;;;;;;;14.65;2.75;;;6.10;99.90;;;;;;6129531;19;19918;-69
2022/11/24 03:14:40;;;;;;;10.27;2.53;;;;;;;;;;6130699;19;19942;-69
2022/11/24 03:16:47;;;;;;;14.18;3.28;;;6.20;99.90;;;;;;6129813;19;19918;-68
2022/11/24 03:18:52;;;;;;;13.13;2.88;;;6.20;99.90;;;;;;6128978;19;19937;-68
2022/11/24 03:21:01;;;;;;;16.38;2.45;;;6.20;99.90;;;;;;6130806;19;19923;-69
2022/11/24 03:23:05;;;;;;;9.93;2.42;;;5.90;99.90;;;;;;6128913;19;19935;-68
2022/11/24 03:25:10;;;;;;;12.15;2.45;;;6.20;99.90;;;;;;6131481;19;19926;-69
2022/11/24 03:27:13;;;;;;;9.27;2.25;;;6.40;99.90;;;;;;6128546;19;19939;-68
2022/11/24 03:29:17;;;;;;;12.63;2.80;;;6.30;99.90;;;;;;6130830;19;19982;-68
2022/11/24 03:31:21;;;;;;;14.57;3.17;;;5.90;99.90;;;;;;6130629;19;19918;-69
2022/11/24 03:33:28;;;;;;;20.42;3.92;;;6.20;99.90;;;;;;6131958;19;19923;-70
2022/11/24 03:35:32;;;;;;;12.05;2.60;;;6.40;99.90;;;;;;6130618;19;20260;-69
2022/11/24 03:37:36;;;;;;;11.00;2.50;;;6.10;99.90;;;;;;6128714;19;20019;-69
2022/11/24 03:39:40;;;;;;;7.65;1.98;;;6.10;99.90;;;;;;6129908;19;19927;-69
2022/11/24 03:41:44;;;;;;;12.25;3.10;;;6.20;99.90;;;;;;6131284;19;19915;-69
2022/11/24 03:43:47;;;;;;;16.92;3.00;;;6.00;99.90;;;;;;6128830;19;19915;-69
2022/11/24 03:45:52;;;;;;;13.55;3.92;;;5.90;99.90;;;;;;6133025;19;19922;-69
2022/11/24 03:47:56;;;;;;;14.95;2.60;;;6.30;99.90;;;;;;6129044;19;20332;-69
2022/11/24 03:50:02;;;;;;;11.85;2.20;;;6.10;99.90;;;;;;6129522;19;19947;-69
2022/11/24 03:52:07;;;;;;;9.48;3.15;;;6.40;99.90;;;;;;6127519;19;19936;-69
2022/11/24 03:54:11;;;;;;;12.82;2.38;;;6.00;99.90;;;;;;6131054;19;19918;-69
2022/11/24 03:56:15;;;;;;;9.32;2.15;;;6.50;99.90;;;;;;6128763;19;19918;-69
2022/11/24 03:58:19;;;;;;;9.13;3.05;;;;;;;;;;6129143;19;19939;-69
2022/11/24 04:00:23;;;;;;;12.57;2.15;;;;;;;;;;6128737;19;19918;-69
2022/11/24 04:02:27;;;;;;;9.05;1.83;;;6.70;99.90;;;;;;6129225;19;19918;-69
2022/11/24 04:04:31;;;;;;;11.20;2.47;;;;;;;;;;6127257;19;19927;-69
2022/11/24 04:06:38;;;;;;;8.77;1.92;;;6.20;99.90;;;;;;6127925;19;19943;-69
2022/11/24 04:08:42;;;;;;;8.77;2.13;;;6.80;99.90;;;;;;6131242;19;20552;-69
2022/11/24 04:10:46;;;;;;;11.60;2.38;;;6.20;99.90;;;;;;6131330;19;19922;-68
2022/11/24 04:12:47;;;;;;;11.55;2.53;;;6.30;99.90;;;;;;6128526;19;19915;-69
2022/11/24 04:14:51;;;;;;;13.23;2.88;;;6.70;99.90;;;;;;6127292;19;20014;-69
2022/11/24 04:16:54;;;;;;;12.95;2.70;;;6.70;99.90;;;;;;6128979;19;19919;-69
2022/11/24 04:18:58;;;;;;;13.82;2.70;;;6.40;99.90;;;;;;6127046;19;19918;-69
2022/11/24 04:21:02;;;;;;;13.02;3.15;;;6.40;99.90;;;;;;6128260;19;19915;-69
2022/11/24 04:23:09;;;;;;;12.18;2.15;;;6.30;99.90;;;;;;6128605;19;19939;-69
2022/11/24 04:25:16;;;;;;;9.48;2.15;;;6.40;99.90;;;;;;6131119;19;19914;-70
2022/11/24 04:27:20;;;;;;;13.63;2.25;;;6.80;99.90;;;;;;6128404;19;19918;-69
2022/11/24 04:29:23;;;;;;;9.75;1.88;;;6.80;99.90;;;;;;6128608;19;20250;-69
2022/11/24 04:31:27;;;;;;;16.27;2.85;;;6.80;99.90;;;;;;6127760;19;20167;-70
2022/11/24 04:33:31;;;;;;;13.90;2.25;;;;;;;;;;6128306;19;19943;-69
2022/11/24 04:35:35;;;;;;;13.02;2.08;;;;;;;;;;6128355;19;19921;-69
2022/11/24 04:37:40;;;;;;;13.60;2.42;;;6.60;99.90;;;;;;6130870;19;19910;-69
2022/11/24 04:39:46;;;;;;;14.85;2.70;;;6.70;99.90;;;;;;6127807;19;19929;-69
2022/11/24 04:41:50;;;;;;;10.75;1.67;;;6.50;99.90;;;;;;6129998;19;19922;-69
2022/11/24 04:43:54;;;;;;;16.98;2.85;;;6.40;99.90;;;;;;6128044;19;19910;-69
2022/11/24 04:46:00;;;;;;;9.82;2.55;;;6.60;99.90;;;;;;6126192;19;19927;-69
2022/11/24 04:48:04;;;;;;;15.93;2.42;;;6.60;99.90;;;;;;6130077;19;20420;-68
2022/11/24 04:50:10;;;;;;;12.55;2.05;;;6.50;99.90;;;;;;6127563;19;19942;-69
2022/11/24 04:52:14;;;;;;;6.53;1.80;;;6.60;99.90;;;;;;6125817;19;19924;-69
2022/11/24 04:54:19;;;;;;;12.18;3.20;;;6.60;99.90;;;;;;6126733;19;19951;-68
2022/11/24 04:56:25;;;;;;;11.70;2.22;;;6.20;99.90;;;;;;6127070;19;19939;-68
2022/11/24 04:58:29;;;;;;;13.10;3.00;;;6.60;99.90;;;;;;6128719;19;20284;-68
2022/11/24 05:00:33;;;;;;;7.80;1.83;;;6.40;99.90;;;;;;6128609;19;19919;-69
2022/11/24 05:02:37;;;;;;;7.13;1.90;;;6.60;99.90;;;;;;6124194;19;20393;-69
2022/11/24 05:04:41;;;;;;;6.63;1.60;;;;;;;;;;6125933;19;19951;-69
2022/11/24 05:06:45;;;;;;;13.48;2.72;;;;;;;;;;6126556;19;19918;-69
2022/11/24 05:08:49;;;;;;;8.82;2.00;;;6.40;99.90;;;;;;6127150;19;19918;-68
2022/11/24 05:10:50;;;;;;;9.85;1.80;;;6.00;99.90;;;;;;6126931;19;19916;-68
2022/11/24 05:13:00;;;;;;;13.40;1.83;;;6.30;99.90;;;;;;6125805;19;19983;-68
2022/11/24 05:15:07;;;;;;;12.23;1.75;;;6.20;99.90;;;;;;6126538;19;19923;-69
2022/11/24 05:17:11;;;;;;;10.60;1.83;;;6.20;99.90;;;;;;6127570;19;19965;-69
2022/11/24 05:19:15;;;;;;;11.18;2.10;;;5.90;99.90;;;;;;6125565;19;19943;-69
2022/11/24 05:21:19;;;;;;;8.90;2.90;;;6.20;99.90;;;;;;6127060;19;19911;-69
2022/11/24 05:23:23;;;;;;;9.60;2.50;;;5.90;99.90;;;;;;6128313;19;19911;-69
2022/11/24 05:25:26;;;;;;;10.30;1.60;;;5.80;99.90;;;;;;6126817;19;19910;-69
2022/11/24 05:27:30;;;;;;;10.13;2.05;;;;;;;;;;6126913;19;19939;-68
2022/11/24 05:29:37;;;;;;;17.52;2.05;;;5.80;99.90;;;;;;6128512;19;19919;-69
2022/11/24 05:31:41;;;;;;;9.60;2.30;;;5.70;99.90;;;;;;6128508;19;19919;-68
2022/11/24 05:33:45;;;;;;;8.55;1.85;;;5.70;99.90;;;;;;6130454;19;19978;-68
2022/11/24 05:35:49;;;;;;;9.23;2.35;;;5.80;99.90;;;;;;6126606;19;19914;-68
2022/11/24 05:37:53;;;;;;;12.13;1.90;;;5.60;99.90;;;;;;6128512;19;19915;-68
2022/11/24 05:39:57;;;;;;;9.20;1.67;;;5.80;99.90;;;;;;6126855;19;19915;-70
2022/11/24 05:42:39;;;;;;;9.85;1.60;;;5.50;99.90;;;;;;6126723;19;19925;-68
2022/11/24 05:44:25;;;;;;;11.05;1.92;;;5.50;99.90;;;;;;6126130;19;19938;-69
2022/11/24 05:46:31;;;;;;;9.77;2.30;;;5.60;99.90;;;;;;6128593;19;19918;-69
2022/11/24 05:48:35;;;;;;;5.82;2.10;;;5.50;99.90;;;;;;6126602;19;19939;-69
2022/11/24 05:50:39;;;;;;;9.68;2.17;;;5.40;99.90;;;;;;6125288;19;19982;-69
2022/11/24 05:52:43;;;;;;;10.88;1.77;;;5.40;99.90;;;;;;6124516;19;20344;-69
2022/11/24 05:54:48;;;;;;;6.93;1.98;;;5.30;99.90;;;;;;6125833;19;19914;-70
2022/11/24 05:56:52;;;;;;;6.25;1.38;;;;;;;;;;6124325;19;19926;-69
2022/11/24 05:58:56;;;;;;;10.70;1.92;;;5.10;99.90;;;;;;6129663;19;19922;-69
2022/11/24 06:01:00;;;;;;;7.97;1.67;;;5.10;99.90;;;;;;6126878;19;19978;-69
2022/11/24 06:03:07;;;;;;;5.90;1.58;;;5.20;99.90;;;;;;6127487;19;19934;-68
2022/11/24 06:05:11;;;;;;;12.07;1.75;;;5.70;99.90;;;;;;6126149;19;19943;-69
2022/11/24 06:07:15;;;;;;;11.80;2.03;;;5.10;99.90;;;;;;6124474;19;19978;-69
2022/11/24 06:09:19;;;;;;;7.40;1.95;;;5.00;99.90;;;;;;6122321;19;20504;-69
2022/11/24 06:11:23;;;;;;;9.10;2.63;;;;;;;;;;6124866;19;19919;-69
2022/11/24 06:13:27;;;;;;;9.38;1.60;;;5.40;99.90;;;;;;6125015;19;19922;-69
2022/11/24 06:15:31;;;;;;;9.25;2.22;;;5.50;99.90;;;;;;6125681;19;20317;-69
2022/11/24 06:17:35;;;;;;;9.13;1.98;;;5.60;99.90;;;;;;6125629;19;19931;-69
2022/11/24 06:19:44;;;;;;;9.15;1.50;;;5.60;99.90;;;;;;6124995;19;20127;-69
2022/11/24 06:21:48;;;;;;;13.43;2.78;;;;;;;;;;6126530;19;19918;-69
2022/11/24 06:23:52;;;;;;;6.25;1.60;;;5.50;99.90;;;;;;6125381;19;19928;-69
2022/11/24 06:25:56;;;;;;;10.18;1.60;;;6.00;99.90;;;;;;6123575;19;20070;-68
2022/11/24 06:28:00;;;;;;;5.53;1.63;;;;;;;;;;6126154;19;20267;-69
2022/11/24 06:30:04;;;;;;;8.07;1.60;;;5.60;99.90;;;;;;6125273;19;19982;-69
2022/11/24 06:32:08;;;;;;;8.93;1.83;;;5.30;99.90;;;;;;6125978;19;19922;-69
2022/11/24 06:34:17;;;;;;;9.55;1.67;;;5.40;99.90;;;;;;6124800;19;19926;-69
2022/11/24 06:36:24;;;;;;;7.20;1.45;;;5.20;99.90;;;;;;6124844;19;19914;-69
2022/11/24 06:38:28;;;;;;;8.23;1.92;;;;;;;;;;6124880;19;19911;-69
2022/11/24 06:40:32;;;;;;;11.77;1.60;;;;;;;;;;6126310;19;19911;-69
2022/11/24 06:42:36;;;;;;;9.88;2.63;;;5.30;99.90;;;;;;6124905;19;20336;-69
2022/11/24 06:44:40;;;;;;;7.15;1.55;;;5.70;99.90;;;;;;6124297;19;19919;-69
2022/11/24 06:46:44;;;;;;;9.05;2.17;;;;;;;;;;6123912;19;19922;-68
2022/11/24 06:48:49;;;;;;;10.00;1.95;;;;;;;;;;6127120;19;19974;-69
2022/11/24 06:50:54;;;;;;;6.95;1.77;;;5.60;99.90;;;;;;6126385;19;19929;-69
2022/11/24 06:53:00;;;;;;;11.73;1.55;;;5.50;99.90;;;;;;6125053;19;19947;-69
2022/11/24 06:55:05;;;;;;;7.00;1.52;;;;;;;;;;6123735;19;19942;-68
2022/11/24 06:57:09;;;;;;;9.40;1.63;;;5.40;99.90;;;;;;6122546;19;19947;-68
2022/11/24 06:59:19;;;;;;;8.95;1.80;;;5.50;99.90;;;;;;6118108;19;19919;-69
2022/11/24 07:01:25;;;;;;;6.63;1.38;;;5.40;99.90;;;;;;6126175;19;19915;-70
2022/11/24 07:03:29;;;;;;;7.68;1.67;;;5.30;99.90;;;;;;6124634;19;19947;-71
2022/11/24 07:05:33;;;;;;;15.63;1.70;;;5.30;99.90;;;;;;6125960;19;19918;-72
2022/11/24 07:07:37;;;;;;;6.80;1.52;;;;;;;;;;6127780;19;19914;-72
2022/11/24 07:09:43;;;;;;;7.63;1.90;;;5.40;99.90;;;;;;6124569;19;19922;-72
2022/11/24 07:11:47;;;;;;;6.47;2.05;;;5.30;99.90;;;;;;6128085;19;19915;-73
2022/11/24 07:14:11;;;;;;;13.00;2.10;;;5.40;99.90;;;;;;6126924;19;19961;-74
2022/11/24 07:16:17;;;;;;;10.27;1.83;;;5.50;99.90;;;;;;6123891;19;19923;-69
2022/11/24 07:18:21;;;;;;;16.00;1.98;;;5.50;99.90;;;;;;6128574;19;20321;-70
2022/11/24 07:20:25;;;;;;;7.78;1.83;;;;;;;;;;6129718;19;19922;-70
2022/11/24 07:22:29;;;;;;;18.38;2.53;;;5.40;99.90;;;;;;6125242;19;20028;-69
2022/11/24 07:24:33;;;;;;;14.32;2.13;;;5.50;99.90;;;;;;6130480;19;20283;-70
2022/11/24 07:26:39;;;;;;;8.43;1.80;;;5.50;99.90;;;;;;6131002;19;19934;-70
2022/11/24 07:28:43;;;;;;;10.93;1.80;;;;;;;;;;6129300;19;20020;-69
2022/11/24 07:30:48;;;;;;;7.78;1.85;;;;;;;;;;6128783;19;19951;-70
2022/11/24 07:32:51;;;;;;;14.43;2.08;;;5.30;99.90;;;;;;6126907;19;19941;-69
2022/11/24 07:34:55;;;;;;;12.05;1.73;;;;;;;;;;6129530;19;20365;-69
2022/11/24 07:37:00;;;;;;;13.55;1.95;;;5.60;99.90;;;;;;6125317;19;19942;-68
2022/11/24 07:39:04;;;;;;;15.35;2.10;;;5.70;99.90;;;;;;6127611;19;19918;-69
2022/11/24 07:41:10;;;;;;;8.50;2.17;;;5.50;99.90;;;;;;6130376;19;19922;-69
2022/11/24 07:43:16;;;;;;;9.07;1.75;;;5.50;99.90;;;;;;6131419;19;19943;-68
2022/11/24 07:45:20;;;;;;;8.65;1.70;;;5.60;99.90;;;;;;6128852;19;19939;-69
2022/11/24 07:47:24;;;;;;;12.40;2.90;;;;;;;;;;6127195;19;19919;-69
2022/11/24 07:49:28;;;;;;;8.82;1.40;;;;;;;;;;6131794;19;19962;-68
2022/11/24 07:51:32;;;;;;;6.30;1.40;;;;;;;;;;6128866;19;20265;-69
2022/11/24 07:53:37;;;;;;;8.75;2.25;;;5.60;99.90;;;;;;6127356;19;19911;-69
2022/11/24 07:55:42;;;;;;;9.90;2.15;;;5.70;99.90;;;;;;6128437;19;19918;-69
2022/11/24 07:57:46;;;;;;;7.82;1.60;;;5.80;99.90;;;;;;6126714;19;19922;-70
2022/11/24 07:59:52;;;;;;;10.40;1.92;;;5.60;99.90;;;;;;6129974;19;20242;-69
2022/11/24 08:01:56;;;;;;;5.68;1.90;;;5.80;99.90;;;;;;6129690;19;19918;-69
2022/11/24 08:04:02;;;;;;;15.18;2.50;;;5.50;99.90;;;;;;6128000;19;19918;-69
2022/11/24 08:06:06;;;;;;;12.07;2.45;;;5.20;99.90;;;;;;6128573;19;19918;-69
2022/11/24 08:08:10;;;;;;;14.00;2.10;;;5.40;99.90;;;;;;6128354;19;20348;-69
2022/11/24 08:10:14;;;;;;;12.98;1.92;;;6.20;99.90;;;;;;6128640;19;19926;-69
2022/11/24 08:12:20;;;;;;;8.13;1.90;;;5.50;99.90;;;;;;6128573;19;19943;-69
2022/11/24 08:14:24;;;;;;;11.07;2.80;;;5.90;99.90;;;;;;6128223;19;19947;-69
2022/11/24 08:16:30;;;;;;;8.18;1.70;;;6.00;99.90;;;;;;6128494;19;20408;-70
2022/11/24 08:18:34;;;;;;;12.68;2.72;;;6.00;99.90;;;;;;6128332;19;19930;-69
2022/11/24 08:20:38;;;;;;;8.05;2.55;;;5.60;99.90;;;;;;6127988;19;19935;-69
2022/11/24 08:22:42;;;;;;;12.35;2.20;;;;;;;;;;6131275;19;19918;-69
2022/11/24 08:24:47;;;;;;;10.82;1.80;;;6.10;99.90;;;;;;6129347;19;20309;-69
2022/11/24 08:26:51;;;;;;;9.55;2.13;;;5.90;99.90;;;;;;6127314;19;20354;-69
2022/11/24 08:28:57;;;;;;;11.02;1.90;;;5.80;99.90;;;;;;6125979;19;20382;-69
2022/11/24 08:31:05;;;;;;;13.23;2.22;;;6.00;99.90;;;;;;6128149;19;19942;-69
2022/11/24 08:33:12;;;;;;;9.82;2.08;;;5.80;99.90;;;;;;6127018;19;19921;-69
2022/11/24 08:35:16;;;;;;;7.68;2.45;;;;;;;;;;6128312;19;19934;-69
2022/11/24 08:37:20;;;;;;;10.75;2.15;;;5.80;99.90;;;;;;6127780;19;20156;-69
2022/11/24 08:39:24;;;;;;;7.80;2.40;;;6.10;99.90;;;;;;6127954;19;19939;-69
2022/11/24 08:41:29;;;;;;;9.73;2.08;;;5.60;99.90;;;;;;6128334;19;19982;-69
2022/11/24 08:43:33;;;;;;;9.27;2.80;;;6.30;99.90;;;;;;6127828;19;19915;-70
2022/11/24 08:45:37;;;;;;;8.80;1.83;;;6.10;99.90;;;;;;6128209;19;19939;-69
2022/11/24 08:47:41;;;;;;;13.35;2.33;;;;;;;;;;6127593;19;20346;-69
2022/11/24 08:49:48;;;;;;;8.75;2.30;;;5.70;99.90;;;;;;6127642;19;20751;-70
2022/11/24 08:51:52;;;;;;;11.98;2.63;;;6.50;99.90;;;;;;6125859;19;20328;-69
2022/11/24 08:53:57;;;;;;;7.68;3.30;;;6.30;99.90;;;;;;6126887;19;20347;-69
2022/11/24 08:56:02;;;;;;;11.82;2.17;;;;;;;;;;6128491;19;19946;-69
2022/11/24 08:58:06;;;;;;;11.90;2.65;;;6.10;99.90;;;;;;6129309;19;19922;-68
2022/11/24 09:00:12;;;;;;;8.45;2.88;;;5.90;99.90;;;;;;6128978;19;19922;-68
2022/11/24 09:02:16;;;;;;;17.35;3.15;;;6.20;99.90;;;;;;6128916;19;19928;-69
2022/11/24 09:04:20;;;;;;;12.63;2.58;;;6.30;99.90;;;;;;6126975;19;19919;-69
2022/11/24 09:06:29;;;;;;;9.73;2.55;;;6.20;99.90;;;;;;6127581;19;20349;-69
2022/11/24 09:08:33;;;;;;;17.42;2.78;;;6.20;99.90;;;;;;6127302;19;19974;-70
2022/11/24 09:10:37;;;;;;;8.95;2.58;;;6.70;99.90;;;;;;6127174;19;20341;-69
2022/11/24 09:12:41;;;;;;;11.20;2.85;;;6.20;99.90;;;;;;6127115;19;19914;-69
2022/11/24 09:14:45;;;;;;;14.65;2.38;;;6.40;99.90;;;;;;6125651;19;20277;-69
2022/11/24 09:16:50;;;;;;;11.57;2.30;;;;;;;;;;6121978;19;20014;-70
2022/11/24 09:18:57;;;;;;;11.40;3.08;;;6.30;99.90;;;;;;6127233;19;19939;-70
2022/11/24 09:21:09;;;;;;;11.68;2.72;;;6.90;99.90;;;;;;6126874;19;20022;-70
2022/11/24 09:23:16;;;;;;;8.38;2.70;;;6.50;99.90;;;;;;6129302;19;19915;-70
2022/11/24 09:25:20;;;;;;;6.28;2.40;;;7.00;99.90;;;;;;6126463;19;19914;-70
2022/11/24 09:27:24;;;;;;;8.05;2.33;;;;;;;;;;6126441;19;19939;-69
2022/11/24 09:29:28;;;;;;;12.70;3.45;;;;;;;;;;6126834;19;20337;-69
2022/11/24 09:31:35;;;;;;;7.80;2.30;;;7.00;99.90;;;;;;6126880;19;19935;-69
2022/11/24 09:33:39;;;;;;;11.65;2.65;;;7.20;99.90;;;;;;6124411;19;19918;-68
2022/11/24 09:35:43;;;;;;;14.05;2.53;;;6.90;99.90;;;;;;6126462;19;19915;-69
2022/11/24 09:37:47;;;;;;;10.45;2.55;;;7.40;99.90;;;;;;6126519;19;19915;-70
2022/11/24 09:39:54;;;;;;;6.97;2.47;;;6.90;99.90;;;;;;6125680;19;20292;-69
2022/11/24 09:42:14;;;;;;;8.80;2.80;;;7.40;99.90;;;;;;6126508;19;19922;-69
2022/11/24 09:44:44;;;;;;;7.70;2.70;;;7.80;99.90;;;;;;6126453;19;19947;-69
2022/11/24 09:46:57;;;;;;;11.50;3.22;;;7.10;99.90;;;;;;6126499;19;19925;-70
2022/11/24 09:49:04;;;;;;;14.38;2.63;;;6.90;99.90;;;;;;6126240;19;20253;-70
2022/11/24 09:51:13;;;;;;;8.57;2.28;;;8.00;99.90;;;;;;6125956;19;19911;-70
2022/11/24 09:53:21;;;;;;;13.40;2.33;;;7.20;99.90;;;;;;6124013;19;19922;-69
2022/11/24 09:55:46;;;;;;;9.60;2.65;;;7.60;99.90;;;;;;6119579;19;20043;-69
2022/11/24 09:57:57;;;;;;;12.82;3.03;;;7.30;99.90;;;;;;6125678;19;19923;-68
2022/11/24 10:00:06;;;;;;;9.75;2.00;;;7.20;99.90;;;;;;6126050;19;19923;-69
2022/11/24 10:02:12;;;;;;;;;;;7.70;99.90;;;;;;6128435;19;19931;-69
2022/11/24 10:04:20;;;;;;;9.40;1.67;;;8.20;99.90;;;;;;6125567;19;19922;-69
2022/11/24 10:06:29;;;;;;;6.75;2.17;;;8.20;99.90;;;;;;6125959;19;20028;-70
2022/11/24 10:08:56;;;;;;;12.98;2.53;;;7.60;99.90;;;;;;6125852;19;19910;-69
2022/11/24 10:11:04;;;;;;;9.65;2.33;;;7.40;99.90;;;;;;6125634;19;19914;-69
2022/11/24 10:13:25;;;;;;;8.75;3.65;;;7.60;99.90;;;;;;6125641;19;19922;-69
2022/11/24 10:15:42;;;;;;;13.25;2.40;;;7.90;99.90;;;;;;6125495;19;19943;-69
2022/11/24 10:18:10;;;;;;;8.73;1.80;;;7.70;99.90;;;;;;6125977;19;19918;-69
2022/11/24 10:20:25;;;;;;;11.90;2.10;;;7.90;99.90;;;;;;6125298;19;19918;-69
2022/11/24 10:22:40;;;;;;;8.95;2.40;;;7.90;99.90;;;;;;6128524;19;19919;-69
2022/11/24 10:25:03;;;;;;;13.38;2.38;;;8.60;99.90;;;;;;6125029;19;19915;-69
2022/11/24 10:27:18;;;;;;;11.35;1.98;;;8.30;99.90;;;;;;6125009;19;20486;-69
2022/11/24 10:29:28;;;;;;;5.85;1.80;;;8.70;99.90;;;;;;6125435;19;19932;-69
2022/11/24 10:31:36;;;;;;;7.70;2.25;;;8.50;99.90;;;;;;6125146;19;19974;-69
2022/11/24 10:33:41;;;;;;;8.73;2.20;;;8.40;99.90;;;;;;6124968;19;19918;-69
2022/11/24 10:35:49;;;;;;;8.75;1.73;;;8.80;99.90;;;;;;6124933;19;19943;-69
2022/11/24 10:38:02;;;;;;;7.32;2.00;;;8.70;99.90;;;;;;6125091;19;19940;-69
2022/11/24 10:40:12;;;;;;;5.93;1.58;;;8.70;99.90;;;;;;6124766;19;19918;-69
2022/11/24 10:42:22;;;;;;;12.05;1.70;;;8.50;99.90;;;;;;6125349;19;19926;-69
2022/11/24 10:44:26;;;;;;;6.38;1.88;;;8.80;99.90;;;;;;6125076;19;19915;-69
2022/11/24 10:46:31;;;;;;;6.35;2.00;;;9.00;99.90;;;;;;6124889;19;19921;-69
2022/11/24 10:48:42;;;;;;;4.45;1.65;;;9.00;99.90;;;;;;6125043;19;19932;-69
2022/11/24 10:50:46;;;;;;;6.03;1.83;;;9.10;99.90;;;;;;6126042;19;19914;-71
2022/11/24 10:52:58;;;;;;;4.45;1.60;;;8.70;99.90;;;;;;6130470;19;19919;-72
2022/11/24 10:55:03;;;;;;;5.00;1.55;;;8.40;99.90;;;;;;6128307;19;19978;-70
2022/11/24 10:57:07;;;;;;;8.15;2.10;;;9.10;99.90;;;;;;6127271;19;20014;-68
2022/11/24 10:59:38;;;;;;;9.07;1.77;;;8.80;99.90;;;;;;6131526;19;19914;-68
2022/11/24 11:01:41;;;;;;;4.82;1.40;;;8.70;99.90;;;;;;6132857;19;20306;-72
2022/11/24 11:03:49;;;;;;;5.68;1.60;;;9.20;99.90;;;;;;6130691;19;19945;-73
2022/11/24 11:05:55;;;;;;;6.15;1.33;;;9.00;99.90;;;;;;6127472;19;19915;-71
2022/11/24 11:08:18;;;;;;;6.72;1.70;;;9.10;99.90;;;;;;6130808;19;19948;-70